sensor_id;sensor_type;location;lat;lon;timestamp;P1;durP1;ratioP1;P2;durP2;ratioP2
54835;SDS011;43486;43.574;1.476;2023-01-15T00:00:58;8.93;;;4.28;;
54835;SDS011;43486;43.574;1.476;2023-01-15T00:03:24;7.30;;;3.45;;
54835;SDS011;43486;43.574;1.476;2023-01-15T00:05:49;10.68;;;3.83;;
54835;SDS011;43486;43.574;1.476;2023-01-15T00:08:15;12.90;;;3.55;;
54835;SDS011;43486;43.574;1.476;2023-01-15T00:10:40;8.18;;;3.72;;
54835;SDS011;43486;43.574;1.476;2023-01-15T00:13:05;6.07;;;3.35;;
54835;SDS011;43486;43.574;1.476;2023-01-15T00:15:31;7.68;;;3.83;;
54835;SDS011;43486;43.574;1.476;2023-01-15T00:17:56;7.68;;;3.67;;
54835;SDS011;43486;43.574;1.476;2023-01-15T00:20:22;10.93;;;3.63;;
54835;SDS011;43486;43.574;1.476;2023-01-15T00:22:47;8.10;;;4.57;;
54835;SDS011;43486;43.574;1.476;2023-01-15T00:25:12;4.97;;;2.80;;
54835;SDS011;43486;43.574;1.476;2023-01-15T00:27:56;7.10;;;3.40;;
54835;SDS011;43486;43.574;1.476;2023-01-15T00:30:22;6.63;;;3.30;;
54835;SDS011;43486;43.574;1.476;2023-01-15T00:32:48;7.47;;;2.78;;
54835;SDS011;43486;43.574;1.476;2023-01-15T00:35:19;7.03;;;3.33;;
54835;SDS011;43486;43.574;1.476;2023-01-15T00:37:46;6.65;;;3.38;;
54835;SDS011;43486;43.574;1.476;2023-01-15T00:40:12;7.35;;;3.28;;
54835;SDS011;43486;43.574;1.476;2023-01-15T00:42:39;7.00;;;3.85;;
54835;SDS011;43486;43.574;1.476;2023-01-15T00:45:05;7.50;;;3.65;;
54835;SDS011;43486;43.574;1.476;2023-01-15T00:47:41;6.50;;;3.13;;
54835;SDS011;43486;43.574;1.476;2023-01-15T00:50:11;5.55;;;2.55;;
54835;SDS011;43486;43.574;1.476;2023-01-15T00:52:38;7.28;;;3.88;;
54835;SDS011;43486;43.574;1.476;2023-01-15T00:55:04;4.88;;;2.40;;
54835;SDS011;43486;43.574;1.476;2023-01-15T00:57:30;8.43;;;3.80;;
54835;SDS011;43486;43.574;1.476;2023-01-15T00:59:56;5.95;;;2.92;;
54835;SDS011;43486;43.574;1.476;2023-01-15T01:02:21;10.45;;;3.97;;
54835;SDS011;43486;43.574;1.476;2023-01-15T01:04:46;6.75;;;3.53;;
54835;SDS011;43486;43.574;1.476;2023-01-15T01:07:12;12.13;;;3.28;;
54835;SDS011;43486;43.574;1.476;2023-01-15T01:09:38;5.90;;;3.03;;
54835;SDS011;43486;43.574;1.476;2023-01-15T01:12:03;8.68;;;2.92;;
54835;SDS011;43486;43.574;1.476;2023-01-15T01:14:29;7.95;;;2.88;;
54835;SDS011;43486;43.574;1.476;2023-01-15T01:16:54;4.60;;;2.72;;
54835;SDS011;43486;43.574;1.476;2023-01-15T01:19:20;7.60;;;3.42;;
54835;SDS011;43486;43.574;1.476;2023-01-15T01:21:47;5.43;;;2.55;;
54835;SDS011;43486;43.574;1.476;2023-01-15T01:24:14;6.22;;;3.00;;
54835;SDS011;43486;43.574;1.476;2023-01-15T01:26:41;6.13;;;3.28;;
54835;SDS011;43486;43.574;1.476;2023-01-15T01:29:10;7.93;;;3.95;;
54835;SDS011;43486;43.574;1.476;2023-01-15T01:31:36;8.45;;;3.58;;
54835;SDS011;43486;43.574;1.476;2023-01-15T01:34:02;4.90;;;2.60;;
54835;SDS011;43486;43.574;1.476;2023-01-15T01:36:30;6.70;;;2.65;;
54835;SDS011;43486;43.574;1.476;2023-01-15T01:38:58;8.25;;;2.42;;
54835;SDS011;43486;43.574;1.476;2023-01-15T01:41:23;5.07;;;2.42;;
54835;SDS011;43486;43.574;1.476;2023-01-15T01:46:53;8.88;;;3.53;;
54835;SDS011;43486;43.574;1.476;2023-01-15T01:49:19;5.90;;;2.80;;
54835;SDS011;43486;43.574;1.476;2023-01-15T01:51:46;5.18;;;2.85;;
54835;SDS011;43486;43.574;1.476;2023-01-15T01:54:32;4.97;;;2.25;;
54835;SDS011;43486;43.574;1.476;2023-01-15T01:57:00;5.35;;;1.92;;
54835;SDS011;43486;43.574;1.476;2023-01-15T01:59:25;5.35;;;2.67;;
54835;SDS011;43486;43.574;1.476;2023-01-15T02:01:51;5.07;;;2.42;;
54835;SDS011;43486;43.574;1.476;2023-01-15T02:04:17;4.57;;;2.50;;
54835;SDS011;43486;43.574;1.476;2023-01-15T02:06:44;9.00;;;2.90;;
54835;SDS011;43486;43.574;1.476;2023-01-15T02:09:09;7.60;;;2.90;;
54835;SDS011;43486;43.574;1.476;2023-01-15T02:11:35;3.67;;;1.90;;
54835;SDS011;43486;43.574;1.476;2023-01-15T02:14:04;5.50;;;2.53;;
54835;SDS011;43486;43.574;1.476;2023-01-15T02:16:55;7.45;;;1.85;;
54835;SDS011;43486;43.574;1.476;2023-01-15T02:22:50;5.68;;;2.65;;
54835;SDS011;43486;43.574;1.476;2023-01-15T02:27:36;6.90;;;2.85;;
54835;SDS011;43486;43.574;1.476;2023-01-15T02:30:04;5.65;;;3.13;;
54835;SDS011;43486;43.574;1.476;2023-01-15T02:35:00;5.00;;;1.98;;
54835;SDS011;43486;43.574;1.476;2023-01-15T02:37:30;2.65;;;1.80;;
54835;SDS011;43486;43.574;1.476;2023-01-15T02:39:58;10.13;;;3.30;;
54835;SDS011;43486;43.574;1.476;2023-01-15T02:42:25;4.72;;;2.78;;
54835;SDS011;43486;43.574;1.476;2023-01-15T02:44:52;7.97;;;2.47;;
54835;SDS011;43486;43.574;1.476;2023-01-15T02:47:19;6.78;;;2.35;;
54835;SDS011;43486;43.574;1.476;2023-01-15T02:49:47;5.28;;;2.72;;
54835;SDS011;43486;43.574;1.476;2023-01-15T02:52:16;6.82;;;2.67;;
54835;SDS011;43486;43.574;1.476;2023-01-15T02:54:46;4.88;;;1.73;;
54835;SDS011;43486;43.574;1.476;2023-01-15T02:57:14;5.07;;;2.47;;
54835;SDS011;43486;43.574;1.476;2023-01-15T02:59:42;5.57;;;2.22;;
54835;SDS011;43486;43.574;1.476;2023-01-15T03:02:15;3.92;;;1.73;;
54835;SDS011;43486;43.574;1.476;2023-01-15T03:07:29;5.43;;;2.90;;
54835;SDS011;43486;43.574;1.476;2023-01-15T03:10:00;3.80;;;1.92;;
54835;SDS011;43486;43.574;1.476;2023-01-15T03:12:28;4.90;;;2.63;;
54835;SDS011;43486;43.574;1.476;2023-01-15T03:18:26;6.70;;;2.90;;
54835;SDS011;43486;43.574;1.476;2023-01-15T03:20:53;5.13;;;2.40;;
54835;SDS011;43486;43.574;1.476;2023-01-15T03:23:22;4.15;;;2.35;;
54835;SDS011;43486;43.574;1.476;2023-01-15T03:25:48;4.82;;;2.40;;
54835;SDS011;43486;43.574;1.476;2023-01-15T03:28:14;5.13;;;2.10;;
54835;SDS011;43486;43.574;1.476;2023-01-15T03:30:43;6.50;;;2.28;;
54835;SDS011;43486;43.574;1.476;2023-01-15T03:33:08;4.35;;;2.20;;
54835;SDS011;43486;43.574;1.476;2023-01-15T03:38:22;6.40;;;2.13;;
54835;SDS011;43486;43.574;1.476;2023-01-15T03:40:52;5.85;;;2.65;;
54835;SDS011;43486;43.574;1.476;2023-01-15T03:43:21;5.05;;;2.22;;
54835;SDS011;43486;43.574;1.476;2023-01-15T03:46:32;5.72;;;2.03;;
54835;SDS011;43486;43.574;1.476;2023-01-15T03:51:37;5.32;;;2.58;;
54835;SDS011;43486;43.574;1.476;2023-01-15T03:54:09;7.38;;;3.08;;
54835;SDS011;43486;43.574;1.476;2023-01-15T03:56:50;4.93;;;2.00;;
54835;SDS011;43486;43.574;1.476;2023-01-15T03:59:38;6.55;;;2.53;;
54835;SDS011;43486;43.574;1.476;2023-01-15T04:02:10;5.03;;;2.42;;
54835;SDS011;43486;43.574;1.476;2023-01-15T04:04:37;3.67;;;2.38;;
54835;SDS011;43486;43.574;1.476;2023-01-15T04:07:02;4.63;;;2.30;;
54835;SDS011;43486;43.574;1.476;2023-01-15T04:09:28;5.88;;;2.47;;
54835;SDS011;43486;43.574;1.476;2023-01-15T04:11:57;3.67;;;1.92;;
54835;SDS011;43486;43.574;1.476;2023-01-15T04:14:24;3.50;;;1.75;;
54835;SDS011;43486;43.574;1.476;2023-01-15T04:16:49;4.10;;;2.45;;
54835;SDS011;43486;43.574;1.476;2023-01-15T04:19:14;5.65;;;2.22;;
54835;SDS011;43486;43.574;1.476;2023-01-15T04:21:40;7.28;;;2.70;;
54835;SDS011;43486;43.574;1.476;2023-01-15T04:24:05;8.40;;;2.63;;
54835;SDS011;43486;43.574;1.476;2023-01-15T04:26:31;8.73;;;2.05;;
54835;SDS011;43486;43.574;1.476;2023-01-15T04:28:56;7.25;;;2.47;;
54835;SDS011;43486;43.574;1.476;2023-01-15T04:31:22;5.07;;;2.45;;
54835;SDS011;43486;43.574;1.476;2023-01-15T04:33:47;6.57;;;3.03;;
54835;SDS011;43486;43.574;1.476;2023-01-15T04:36:12;5.13;;;2.60;;
54835;SDS011;43486;43.574;1.476;2023-01-15T04:38:38;7.53;;;2.42;;
54835;SDS011;43486;43.574;1.476;2023-01-15T04:41:03;9.43;;;2.63;;
54835;SDS011;43486;43.574;1.476;2023-01-15T04:43:48;5.25;;;2.90;;
54835;SDS011;43486;43.574;1.476;2023-01-15T04:46:38;5.15;;;3.05;;
54835;SDS011;43486;43.574;1.476;2023-01-15T04:49:05;6.90;;;2.55;;
54835;SDS011;43486;43.574;1.476;2023-01-15T04:51:33;3.00;;;1.83;;
54835;SDS011;43486;43.574;1.476;2023-01-15T04:54:00;6.22;;;2.80;;
54835;SDS011;43486;43.574;1.476;2023-01-15T04:56:27;6.82;;;2.55;;
54835;SDS011;43486;43.574;1.476;2023-01-15T04:58:52;7.30;;;3.53;;
54835;SDS011;43486;43.574;1.476;2023-01-15T05:01:18;6.47;;;2.70;;
54835;SDS011;43486;43.574;1.476;2023-01-15T05:03:43;4.78;;;2.22;;
54835;SDS011;43486;43.574;1.476;2023-01-15T05:06:09;3.28;;;2.00;;
54835;SDS011;43486;43.574;1.476;2023-01-15T05:08:34;4.18;;;2.33;;
54835;SDS011;43486;43.574;1.476;2023-01-15T05:11:04;4.40;;;2.15;;
54835;SDS011;43486;43.574;1.476;2023-01-15T05:13:30;5.63;;;3.28;;
54835;SDS011;43486;43.574;1.476;2023-01-15T05:16:19;5.68;;;2.35;;
54835;SDS011;43486;43.574;1.476;2023-01-15T05:18:44;4.43;;;2.28;;
54835;SDS011;43486;43.574;1.476;2023-01-15T05:21:17;4.28;;;2.45;;
54835;SDS011;43486;43.574;1.476;2023-01-15T05:23:48;5.93;;;2.50;;
54835;SDS011;43486;43.574;1.476;2023-01-15T05:26:14;4.35;;;2.30;;
54835;SDS011;43486;43.574;1.476;2023-01-15T05:28:40;5.53;;;2.20;;
54835;SDS011;43486;43.574;1.476;2023-01-15T05:31:09;3.35;;;2.00;;
54835;SDS011;43486;43.574;1.476;2023-01-15T05:33:36;5.40;;;2.50;;
54835;SDS011;43486;43.574;1.476;2023-01-15T05:36:03;7.85;;;2.50;;
54835;SDS011;43486;43.574;1.476;2023-01-15T05:38:30;4.75;;;2.42;;
54835;SDS011;43486;43.574;1.476;2023-01-15T05:40:56;5.43;;;2.33;;
54835;SDS011;43486;43.574;1.476;2023-01-15T05:43:21;6.05;;;2.53;;
54835;SDS011;43486;43.574;1.476;2023-01-15T05:45:46;5.30;;;2.45;;
54835;SDS011;43486;43.574;1.476;2023-01-15T05:48:12;3.85;;;1.90;;
54835;SDS011;43486;43.574;1.476;2023-01-15T05:50:37;4.32;;;2.50;;
54835;SDS011;43486;43.574;1.476;2023-01-15T05:53:02;5.45;;;2.50;;
54835;SDS011;43486;43.574;1.476;2023-01-15T05:55:28;4.18;;;2.63;;
54835;SDS011;43486;43.574;1.476;2023-01-15T05:57:53;4.50;;;2.30;;
54835;SDS011;43486;43.574;1.476;2023-01-15T06:00:19;5.88;;;3.00;;
54835;SDS011;43486;43.574;1.476;2023-01-15T06:02:47;5.07;;;2.20;;
54835;SDS011;43486;43.574;1.476;2023-01-15T06:05:13;4.57;;;2.33;;
54835;SDS011;43486;43.574;1.476;2023-01-15T06:07:38;3.08;;;2.33;;
54835;SDS011;43486;43.574;1.476;2023-01-15T06:10:04;5.68;;;2.47;;
54835;SDS011;43486;43.574;1.476;2023-01-15T06:12:31;6.97;;;2.33;;
54835;SDS011;43486;43.574;1.476;2023-01-15T06:14:56;5.80;;;2.65;;
54835;SDS011;43486;43.574;1.476;2023-01-15T06:17:22;7.00;;;3.22;;
54835;SDS011;43486;43.574;1.476;2023-01-15T06:19:47;5.03;;;2.47;;
54835;SDS011;43486;43.574;1.476;2023-01-15T06:22:12;5.85;;;2.00;;
54835;SDS011;43486;43.574;1.476;2023-01-15T06:24:38;3.65;;;2.10;;
54835;SDS011;43486;43.574;1.476;2023-01-15T06:27:03;6.35;;;2.78;;
54835;SDS011;43486;43.574;1.476;2023-01-15T06:29:29;3.55;;;1.83;;
54835;SDS011;43486;43.574;1.476;2023-01-15T06:31:55;7.03;;;2.40;;
54835;SDS011;43486;43.574;1.476;2023-01-15T06:34:20;5.55;;;2.88;;
54835;SDS011;43486;43.574;1.476;2023-01-15T06:36:45;5.22;;;2.60;;
54835;SDS011;43486;43.574;1.476;2023-01-15T06:39:11;5.93;;;3.30;;
54835;SDS011;43486;43.574;1.476;2023-01-15T06:41:36;5.15;;;2.63;;
54835;SDS011;43486;43.574;1.476;2023-01-15T06:47:10;5.85;;;2.63;;
54835;SDS011;43486;43.574;1.476;2023-01-15T06:49:56;4.38;;;2.65;;
54835;SDS011;43486;43.574;1.476;2023-01-15T06:52:22;3.67;;;1.83;;
54835;SDS011;43486;43.574;1.476;2023-01-15T06:54:49;6.78;;;2.72;;
54835;SDS011;43486;43.574;1.476;2023-01-15T06:57:14;3.83;;;1.70;;
54835;SDS011;43486;43.574;1.476;2023-01-15T06:59:40;6.43;;;2.47;;
54835;SDS011;43486;43.574;1.476;2023-01-15T07:02:05;3.47;;;2.38;;
54835;SDS011;43486;43.574;1.476;2023-01-15T07:04:31;4.50;;;2.53;;
54835;SDS011;43486;43.574;1.476;2023-01-15T07:06:56;5.25;;;2.17;;
54835;SDS011;43486;43.574;1.476;2023-01-15T07:09:21;3.92;;;2.20;;
54835;SDS011;43486;43.574;1.476;2023-01-15T07:11:47;3.97;;;2.70;;
54835;SDS011;43486;43.574;1.476;2023-01-15T07:14:19;6.47;;;3.30;;
54835;SDS011;43486;43.574;1.476;2023-01-15T07:16:46;3.35;;;2.10;;
54835;SDS011;43486;43.574;1.476;2023-01-15T07:19:11;3.95;;;2.35;;
54835;SDS011;43486;43.574;1.476;2023-01-15T07:21:37;3.70;;;2.10;;
54835;SDS011;43486;43.574;1.476;2023-01-15T07:24:03;7.25;;;3.25;;
54835;SDS011;43486;43.574;1.476;2023-01-15T07:26:28;5.78;;;3.05;;
54835;SDS011;43486;43.574;1.476;2023-01-15T07:28:54;4.93;;;2.58;;
54835;SDS011;43486;43.574;1.476;2023-01-15T07:31:19;4.22;;;1.88;;
54835;SDS011;43486;43.574;1.476;2023-01-15T07:33:45;6.53;;;2.05;;
54835;SDS011;43486;43.574;1.476;2023-01-15T07:36:10;3.58;;;1.80;;
54835;SDS011;43486;43.574;1.476;2023-01-15T07:38:35;3.22;;;1.77;;
54835;SDS011;43486;43.574;1.476;2023-01-15T07:41:01;4.95;;;2.05;;
54835;SDS011;43486;43.574;1.476;2023-01-15T07:43:45;5.65;;;2.85;;
54835;SDS011;43486;43.574;1.476;2023-01-15T07:49:13;4.37;;;1.77;;
54835;SDS011;43486;43.574;1.476;2023-01-15T07:51:57;4.15;;;1.83;;
54835;SDS011;43486;43.574;1.476;2023-01-15T07:54:23;3.42;;;2.03;;
54835;SDS011;43486;43.574;1.476;2023-01-15T07:56:49;2.22;;;1.45;;
54835;SDS011;43486;43.574;1.476;2023-01-15T07:59:15;2.65;;;1.38;;
54835;SDS011;43486;43.574;1.476;2023-01-15T08:01:41;4.97;;;2.30;;
54835;SDS011;43486;43.574;1.476;2023-01-15T08:04:06;4.10;;;1.83;;
54835;SDS011;43486;43.574;1.476;2023-01-15T08:06:33;4.55;;;1.98;;
54835;SDS011;43486;43.574;1.476;2023-01-15T08:08:59;4.53;;;2.38;;
54835;SDS011;43486;43.574;1.476;2023-01-15T08:11:24;4.38;;;1.92;;
54835;SDS011;43486;43.574;1.476;2023-01-15T08:14:08;2.65;;;1.70;;
54835;SDS011;43486;43.574;1.476;2023-01-15T08:16:52;6.25;;;1.50;;
54835;SDS011;43486;43.574;1.476;2023-01-15T08:19:18;4.22;;;1.55;;
54835;SDS011;43486;43.574;1.476;2023-01-15T08:21:43;3.53;;;1.75;;
54835;SDS011;43486;43.574;1.476;2023-01-15T08:24:09;1.45;;;1.13;;
54835;SDS011;43486;43.574;1.476;2023-01-15T08:26:34;3.38;;;1.58;;
54835;SDS011;43486;43.574;1.476;2023-01-15T08:28:59;3.95;;;1.50;;
54835;SDS011;43486;43.574;1.476;2023-01-15T08:31:25;2.95;;;1.38;;
54835;SDS011;43486;43.574;1.476;2023-01-15T08:33:50;3.42;;;2.22;;
54835;SDS011;43486;43.574;1.476;2023-01-15T08:36:16;4.43;;;1.55;;
54835;SDS011;43486;43.574;1.476;2023-01-15T08:38:42;2.03;;;1.20;;
54835;SDS011;43486;43.574;1.476;2023-01-15T08:41:08;2.03;;;1.10;;
54835;SDS011;43486;43.574;1.476;2023-01-15T08:43:33;2.55;;;1.33;;
54835;SDS011;43486;43.574;1.476;2023-01-15T08:45:59;1.85;;;1.30;;
54835;SDS011;43486;43.574;1.476;2023-01-15T08:48:27;2.85;;;1.30;;
54835;SDS011;43486;43.574;1.476;2023-01-15T08:50:53;3.10;;;1.42;;
54835;SDS011;43486;43.574;1.476;2023-01-15T08:53:19;2.58;;;1.20;;
54835;SDS011;43486;43.574;1.476;2023-01-15T08:55:45;3.10;;;1.58;;
54835;SDS011;43486;43.574;1.476;2023-01-15T08:58:10;1.15;;;1.02;;
54835;SDS011;43486;43.574;1.476;2023-01-15T09:00:36;5.53;;;1.48;;
54835;SDS011;43486;43.574;1.476;2023-01-15T09:03:01;4.70;;;1.30;;
54835;SDS011;43486;43.574;1.476;2023-01-15T09:05:27;2.35;;;1.23;;
54835;SDS011;43486;43.574;1.476;2023-01-15T09:07:53;3.28;;;1.80;;
54835;SDS011;43486;43.574;1.476;2023-01-15T09:10:19;3.17;;;2.42;;
54835;SDS011;43486;43.574;1.476;2023-01-15T09:12:45;4.45;;;1.83;;
54835;SDS011;43486;43.574;1.476;2023-01-15T09:15:10;2.00;;;1.30;;
54835;SDS011;43486;43.574;1.476;2023-01-15T09:17:36;2.63;;;1.48;;
54835;SDS011;43486;43.574;1.476;2023-01-15T09:20:04;3.15;;;1.58;;
54835;SDS011;43486;43.574;1.476;2023-01-15T09:22:31;2.55;;;1.30;;
54835;SDS011;43486;43.574;1.476;2023-01-15T09:24:57;4.30;;;1.67;;
54835;SDS011;43486;43.574;1.476;2023-01-15T09:27:23;4.10;;;1.23;;
54835;SDS011;43486;43.574;1.476;2023-01-15T09:29:48;21.27;;;1.45;;
54835;SDS011;43486;43.574;1.476;2023-01-15T09:32:14;1.83;;;1.17;;
54835;SDS011;43486;43.574;1.476;2023-01-15T09:34:39;2.55;;;1.08;;
54835;SDS011;43486;43.574;1.476;2023-01-15T09:37:04;2.53;;;1.25;;
54835;SDS011;43486;43.574;1.476;2023-01-15T09:39:30;6.63;;;2.13;;
54835;SDS011;43486;43.574;1.476;2023-01-15T09:47:39;2.15;;;1.23;;
54835;SDS011;43486;43.574;1.476;2023-01-15T09:50:33;7.03;;;1.63;;
54835;SDS011;43486;43.574;1.476;2023-01-15T09:53:08;3.38;;;1.55;;
54835;SDS011;43486;43.574;1.476;2023-01-15T09:55:48;1.27;;;1.02;;
54835;SDS011;43486;43.574;1.476;2023-01-15T09:58:18;2.17;;;1.17;;
54835;SDS011;43486;43.574;1.476;2023-01-15T10:00:46;2.90;;;1.25;;
54835;SDS011;43486;43.574;1.476;2023-01-15T10:03:20;4.10;;;1.55;;
54835;SDS011;43486;43.574;1.476;2023-01-15T10:05:49;3.67;;;1.58;;
54835;SDS011;43486;43.574;1.476;2023-01-15T10:08:23;2.70;;;1.13;;
54835;SDS011;43486;43.574;1.476;2023-01-15T10:10:59;3.35;;;1.55;;
54835;SDS011;43486;43.574;1.476;2023-01-15T10:13:47;6.32;;;1.48;;
54835;SDS011;43486;43.574;1.476;2023-01-15T10:16:47;5.00;;;1.23;;
54835;SDS011;43486;43.574;1.476;2023-01-15T10:19:07;3.45;;;2.10;;
54835;SDS011;43486;43.574;1.476;2023-01-15T10:24:55;2.97;;;1.85;;
54835;SDS011;43486;43.574;1.476;2023-01-15T10:27:27;3.20;;;1.85;;
54835;SDS011;43486;43.574;1.476;2023-01-15T10:29:58;2.90;;;1.42;;
54835;SDS011;43486;43.574;1.476;2023-01-15T10:32:42;1.77;;;1.00;;
54835;SDS011;43486;43.574;1.476;2023-01-15T10:43:29;1.77;;;1.15;;
54835;SDS011;43486;43.574;1.476;2023-01-15T10:46:18;3.88;;;1.40;;
54835;SDS011;43486;43.574;1.476;2023-01-15T10:51:20;1.85;;;1.08;;
54835;SDS011;43486;43.574;1.476;2023-01-15T10:53:51;1.27;;;1.05;;
54835;SDS011;43486;43.574;1.476;2023-01-15T10:56:33;1.48;;;1.10;;
54835;SDS011;43486;43.574;1.476;2023-01-15T11:01:41;2.45;;;1.30;;
54835;SDS011;43486;43.574;1.476;2023-01-15T11:04:10;13.77;;;2.13;;
54835;SDS011;43486;43.574;1.476;2023-01-15T11:06:37;13.52;;;1.85;;
54835;SDS011;43486;43.574;1.476;2023-01-15T11:09:03;4.05;;;1.73;;
54835;SDS011;43486;43.574;1.476;2023-01-15T11:17:22;2.33;;;1.27;;
54835;SDS011;43486;43.574;1.476;2023-01-15T11:20:27;3.95;;;1.48;;
54835;SDS011;43486;43.574;1.476;2023-01-15T11:23:04;3.40;;;1.30;;
54835;SDS011;43486;43.574;1.476;2023-01-15T11:25:31;4.82;;;1.30;;
54835;SDS011;43486;43.574;1.476;2023-01-15T11:27:58;1.92;;;1.13;;
54835;SDS011;43486;43.574;1.476;2023-01-15T11:30:26;3.80;;;1.80;;
54835;SDS011;43486;43.574;1.476;2023-01-15T11:32:56;2.28;;;1.20;;
54835;SDS011;43486;43.574;1.476;2023-01-15T11:35:23;4.63;;;1.67;;
54835;SDS011;43486;43.574;1.476;2023-01-15T11:37:59;3.30;;;1.30;;
54835;SDS011;43486;43.574;1.476;2023-01-15T11:40:29;2.42;;;1.83;;
54835;SDS011;43486;43.574;1.476;2023-01-15T11:42:54;3.00;;;1.13;;
54835;SDS011;43486;43.574;1.476;2023-01-15T11:45:48;3.00;;;1.30;;
54835;SDS011;43486;43.574;1.476;2023-01-15T11:48:34;2.38;;;1.42;;
54835;SDS011;43486;43.574;1.476;2023-01-15T11:51:26;5.88;;;1.48;;
54835;SDS011;43486;43.574;1.476;2023-01-15T11:53:53;1.95;;;1.27;;
54835;SDS011;43486;43.574;1.476;2023-01-15T11:56:20;8.95;;;2.13;;
54835;SDS011;43486;43.574;1.476;2023-01-15T11:58:49;3.75;;;1.67;;
54835;SDS011;43486;43.574;1.476;2023-01-15T12:01:27;4.72;;;1.40;;
54835;SDS011;43486;43.574;1.476;2023-01-15T12:03:55;2.90;;;1.40;;
54835;SDS011;43486;43.574;1.476;2023-01-15T12:06:21;2.33;;;1.25;;
54835;SDS011;43486;43.574;1.476;2023-01-15T12:20:23;2.75;;;1.25;;
54835;SDS011;43486;43.574;1.476;2023-01-15T12:25:39;4.80;;;1.45;;
54835;SDS011;43486;43.574;1.476;2023-01-15T12:31:06;1.63;;;1.25;;
54835;SDS011;43486;43.574;1.476;2023-01-15T12:33:55;2.72;;;1.10;;
54835;SDS011;43486;43.574;1.476;2023-01-15T12:36:36;5.95;;;1.98;;
54835;SDS011;43486;43.574;1.476;2023-01-15T12:39:04;1.55;;;1.10;;
54835;SDS011;43486;43.574;1.476;2023-01-15T12:41:37;2.35;;;1.38;;
54835;SDS011;43486;43.574;1.476;2023-01-15T12:44:30;2.47;;;1.13;;
54835;SDS011;43486;43.574;1.476;2023-01-15T12:47:27;2.50;;;1.10;;
54835;SDS011;43486;43.574;1.476;2023-01-15T12:52:44;3.65;;;1.55;;
54835;SDS011;43486;43.574;1.476;2023-01-15T12:57:41;1.63;;;1.13;;
54835;SDS011;43486;43.574;1.476;2023-01-15T13:10:28;6.88;;;1.30;;
54835;SDS011;43486;43.574;1.476;2023-01-15T13:18:25;2.20;;;1.08;;
54835;SDS011;43486;43.574;1.476;2023-01-15T13:20:53;3.65;;;1.75;;
54835;SDS011;43486;43.574;1.476;2023-01-15T13:25:59;3.58;;;1.38;;
54835;SDS011;43486;43.574;1.476;2023-01-15T13:34:25;3.00;;;0.88;;
54835;SDS011;43486;43.574;1.476;2023-01-15T13:37:01;2.10;;;1.15;;
54835;SDS011;43486;43.574;1.476;2023-01-15T13:39:33;2.85;;;1.17;;
54835;SDS011;43486;43.574;1.476;2023-01-15T13:42:04;2.67;;;1.45;;
54835;SDS011;43486;43.574;1.476;2023-01-15T13:44:49;2.17;;;1.23;;
54835;SDS011;43486;43.574;1.476;2023-01-15T13:47:26;1.67;;;1.27;;
54835;SDS011;43486;43.574;1.476;2023-01-15T13:49:56;5.45;;;1.38;;
54835;SDS011;43486;43.574;1.476;2023-01-15T13:52:25;2.20;;;1.15;;
54835;SDS011;43486;43.574;1.476;2023-01-15T13:54:53;3.35;;;1.65;;
54835;SDS011;43486;43.574;1.476;2023-01-15T13:57:23;2.58;;;1.10;;
54835;SDS011;43486;43.574;1.476;2023-01-15T13:59:50;2.40;;;1.45;;
54835;SDS011;43486;43.574;1.476;2023-01-15T14:02:29;1.88;;;1.00;;
54835;SDS011;43486;43.574;1.476;2023-01-15T14:04:56;2.10;;;1.33;;
54835;SDS011;43486;43.574;1.476;2023-01-15T14:10:19;3.33;;;1.83;;
54835;SDS011;43486;43.574;1.476;2023-01-15T14:35:39;2.63;;;1.55;;
54835;SDS011;43486;43.574;1.476;2023-01-15T14:38:11;2.70;;;1.58;;
54835;SDS011;43486;43.574;1.476;2023-01-15T14:40:40;3.72;;;1.65;;
54835;SDS011;43486;43.574;1.476;2023-01-15T14:43:25;3.75;;;1.58;;
54835;SDS011;43486;43.574;1.476;2023-01-15T14:45:52;3.97;;;1.55;;
54835;SDS011;43486;43.574;1.476;2023-01-15T14:50:43;2.40;;;1.30;;
54835;SDS011;43486;43.574;1.476;2023-01-15T15:01:12;4.38;;;1.77;;
54835;SDS011;43486;43.574;1.476;2023-01-15T15:03:49;6.05;;;1.40;;
54835;SDS011;43486;43.574;1.476;2023-01-15T15:06:21;2.22;;;1.38;;
54835;SDS011;43486;43.574;1.476;2023-01-15T15:08:46;1.15;;;0.90;;
54835;SDS011;43486;43.574;1.476;2023-01-15T15:11:18;3.85;;;1.63;;
54835;SDS011;43486;43.574;1.476;2023-01-15T15:14:06;8.90;;;2.05;;
54835;SDS011;43486;43.574;1.476;2023-01-15T15:16:34;6.97;;;1.60;;
54835;SDS011;43486;43.574;1.476;2023-01-15T15:19:23;3.75;;;1.60;;
54835;SDS011;43486;43.574;1.476;2023-01-15T15:21:55;3.97;;;1.38;;
54835;SDS011;43486;43.574;1.476;2023-01-15T15:24:31;4.32;;;1.90;;
54835;SDS011;43486;43.574;1.476;2023-01-15T15:30:01;3.33;;;1.60;;
54835;SDS011;43486;43.574;1.476;2023-01-15T15:32:31;5.05;;;1.65;;
54835;SDS011;43486;43.574;1.476;2023-01-15T15:35:04;3.72;;;1.60;;
54835;SDS011;43486;43.574;1.476;2023-01-15T15:37:30;4.47;;;1.55;;
54835;SDS011;43486;43.574;1.476;2023-01-15T15:39:58;4.68;;;1.52;;
54835;SDS011;43486;43.574;1.476;2023-01-15T15:42:27;2.38;;;1.38;;
54835;SDS011;43486;43.574;1.476;2023-01-15T15:45:24;2.35;;;1.50;;
54835;SDS011;43486;43.574;1.476;2023-01-15T15:48:16;2.28;;;1.30;;
54835;SDS011;43486;43.574;1.476;2023-01-15T15:51:04;3.73;;;1.73;;
54835;SDS011;43486;43.574;1.476;2023-01-15T15:53:30;1.75;;;1.15;;
54835;SDS011;43486;43.574;1.476;2023-01-15T15:55:56;2.80;;;1.33;;
54835;SDS011;43486;43.574;1.476;2023-01-15T16:00:51;1.75;;;1.23;;
54835;SDS011;43486;43.574;1.476;2023-01-15T16:03:24;2.42;;;1.25;;
54835;SDS011;43486;43.574;1.476;2023-01-15T16:08:21;1.90;;;1.20;;
54835;SDS011;43486;43.574;1.476;2023-01-15T16:10:47;3.22;;;1.38;;
54835;SDS011;43486;43.574;1.476;2023-01-15T16:16:13;3.03;;;1.67;;
54835;SDS011;43486;43.574;1.476;2023-01-15T16:18:41;1.48;;;1.25;;
54835;SDS011;43486;43.574;1.476;2023-01-15T16:21:09;2.97;;;1.30;;
54835;SDS011;43486;43.574;1.476;2023-01-15T16:23:36;2.00;;;1.38;;
54835;SDS011;43486;43.574;1.476;2023-01-15T16:26:07;3.72;;;1.50;;
54835;SDS011;43486;43.574;1.476;2023-01-15T16:28:41;1.80;;;1.27;;
54835;SDS011;43486;43.574;1.476;2023-01-15T16:31:09;2.00;;;1.02;;
54835;SDS011;43486;43.574;1.476;2023-01-15T16:33:37;3.30;;;1.63;;
54835;SDS011;43486;43.574;1.476;2023-01-15T16:36:03;5.15;;;2.05;;
54835;SDS011;43486;43.574;1.476;2023-01-15T16:38:33;4.32;;;1.50;;
54835;SDS011;43486;43.574;1.476;2023-01-15T16:41:00;1.27;;;0.98;;
54835;SDS011;43486;43.574;1.476;2023-01-15T16:43:26;2.67;;;1.58;;
54835;SDS011;43486;43.574;1.476;2023-01-15T16:50:49;3.17;;;1.42;;
54835;SDS011;43486;43.574;1.476;2023-01-15T16:53:35;3.08;;;1.50;;
54835;SDS011;43486;43.574;1.476;2023-01-15T16:56:04;2.78;;;1.50;;
54835;SDS011;43486;43.574;1.476;2023-01-15T16:58:31;2.90;;;1.60;;
54835;SDS011;43486;43.574;1.476;2023-01-15T17:01:22;3.83;;;1.58;;
54835;SDS011;43486;43.574;1.476;2023-01-15T17:03:57;6.13;;;1.80;;
54835;SDS011;43486;43.574;1.476;2023-01-15T17:06:24;3.55;;;1.50;;
54835;SDS011;43486;43.574;1.476;2023-01-15T17:08:50;2.50;;;1.15;;
54835;SDS011;43486;43.574;1.476;2023-01-15T17:11:18;7.75;;;1.73;;
54835;SDS011;43486;43.574;1.476;2023-01-15T17:13:45;2.90;;;1.23;;
54835;SDS011;43486;43.574;1.476;2023-01-15T17:16:20;5.22;;;2.38;;
54835;SDS011;43486;43.574;1.476;2023-01-15T17:18:47;2.15;;;1.40;;
54835;SDS011;43486;43.574;1.476;2023-01-15T17:21:21;2.85;;;1.35;;
54835;SDS011;43486;43.574;1.476;2023-01-15T17:23:51;4.50;;;2.30;;
54835;SDS011;43486;43.574;1.476;2023-01-15T17:26:18;3.88;;;1.48;;
54835;SDS011;43486;43.574;1.476;2023-01-15T17:28:45;2.78;;;1.20;;
54835;SDS011;43486;43.574;1.476;2023-01-15T17:31:19;4.13;;;1.35;;
54835;SDS011;43486;43.574;1.476;2023-01-15T17:33:47;2.40;;;1.20;;
54835;SDS011;43486;43.574;1.476;2023-01-15T17:36:15;3.10;;;1.80;;
54835;SDS011;43486;43.574;1.476;2023-01-15T17:38:42;3.42;;;1.55;;